Terminal Aerodrome Forecast
Issued by NWS

Home | Current Version | Previous Version | Text Only | Print | Product List | Glossary On
Versions: 1 2 3 4 5 6 7 8 9 10 11 12 13 14 15 16 17 18
000
FTUS45 KVEF 291735
TAFVGT
TAF
KVGT 291735Z 2918/3018 15006KT P6SM FEW090 FEW250
     FM292100 22008G16KT P6SM SCT120
     FM300300 24011KT P6SM SCT120 BKN180
     FM300900 35010KT P6SM SCT100 BKN120=

USA.gov is the U.S. government's official web portal to all federal, state and local government web resources and services.